Time;durP1;ratioP1;P1;durP2;ratioP2;P2;SDS_P1;SDS_P2;PMS_P1;PMS_P2;Temp;Humidity;BMP_temperature;BMP_pressure;BME280_temperature;BME280_humidity;BME280_pressure;Samples;Min_cycle;Max_cycle;Signal;HPM_P1;HPM_P2
2022/01/07 00:01:07;;;;;;;;;15.00;11.00;;;;;5.66;71.94;101663.84;5054489;28;45368;-73
2022/01/07 00:03:33;;;;;;;;;21.00;12.75;;;;;5.67;72.07;101668.16;5057722;28;45579;-73
2022/01/07 00:05:59;;;;;;;;;16.50;12.50;;;;;5.68;72.49;101666.41;5058357;28;45559;-73
2022/01/07 00:08:25;;;;;;;;;16.00;11.25;;;;;5.59;72.28;101651.72;5052277;28;45506;-73
2022/01/07 00:10:50;;;;;;;;;14.50;12.75;;;;;5.54;72.94;101644.81;5066079;28;45737;-73
2022/01/07 00:13:15;;;;;;;;;12.50;10.50;;;;;5.54;73.01;101653.50;5056313;28;45736;-72
2022/01/07 00:15:41;;;;;;;;;14.00;9.00;;;;;5.29;73.60;101624.13;5053122;28;46018;-73
2022/01/07 00:18:07;;;;;;;;;8.75;8.25;;;;;5.35;74.01;101650.16;5055456;28;45687;-73
2022/01/07 00:20:34;;;;;;;;;16.75;13.00;;;;;5.28;74.56;101648.47;5053751;28;45895;-73
2022/01/07 00:23:00;;;;;;;;;8.75;8.00;;;;;5.26;74.92;101644.13;5064840;28;45467;-73
2022/01/07 00:25:25;;;;;;;;;13.00;11.00;;;;;5.21;75.18;101646.75;5055247;28;46105;-73
2022/01/07 00:27:51;;;;;;;;;14.75;11.75;;;;;5.08;75.09;101621.69;5053533;28;45614;-72
2022/01/07 00:30:19;;;;;;;;;12.25;10.50;;;;;5.12;75.56;101626.88;5052473;28;45521;-73
2022/01/07 00:32:45;;;;;;;;;10.50;10.00;;;;;5.04;76.11;101612.16;5052872;28;45732;-73
2022/01/07 00:35:11;;;;;;;;;13.50;11.00;;;;;5.07;76.05;101619.97;5050248;28;45422;-73
2022/01/07 00:37:37;;;;;;;;;13.50;9.00;;;;;5.03;75.81;101608.69;5054589;28;46098;-73
2022/01/07 00:40:06;;;;;;;;;15.25;11.50;;;;;5.07;77.48;101612.13;5056599;28;45355;-73
2022/01/07 00:42:31;;;;;;;;;14.50;9.00;;;;;4.93;77.26;101593.97;5057174;28;45395;-73
2022/01/07 00:44:56;;;;;;;;;13.75;8.25;;;;;4.87;77.90;101601.84;5056762;28;46085;-73
2022/01/07 00:47:21;;;;;;;;;11.67;8.00;;;;;4.79;79.43;101596.66;5052885;28;56677;-73
2022/01/07 00:49:47;;;;;;;;;5.25;5.25;;;;;4.76;80.37;101590.59;5052040;28;45536;-73
2022/01/07 00:52:12;;;;;;;;;11.50;9.00;;;;;4.71;80.83;101590.63;5057830;28;45461;-73
2022/01/07 00:54:38;;;;;;;;;11.25;7.50;;;;;4.68;81.36;101590.63;5056642;27;46294;-73
2022/01/07 00:57:03;;;;;;;;;10.00;8.00;;;;;4.59;81.35;101583.72;5055217;28;45458;-73
2022/01/07 00:59:28;;;;;;;;;6.50;6.50;;;;;4.34;nan;101551.75;5056984;28;45384;-73
2022/01/07 01:01:54;;;;;;;;;12.00;8.50;;;;;4.54;82.41;101585.50;5050957;28;45398;-73
2022/01/07 01:04:19;;;;;;;;;10.50;8.75;;;;;4.44;95.58;101570.81;5049166;28;45587;-73
2022/01/07 01:06:45;;;;;;;;;8.50;8.00;;;;;4.47;84.45;101583.78;5056008;28;45391;-73
2022/01/07 01:09:12;;;;;;;;;11.25;9.25;;;;;4.48;83.41;101579.44;5056774;28;45494;-73
2022/01/07 01:11:38;;;;;;;;;8.75;7.75;;;;;4.50;82.65;101577.72;5057012;28;45461;-73
2022/01/07 01:14:05;;;;;;;;;8.50;7.00;;;;;4.48;81.69;101582.91;5052205;28;46127;-73
2022/01/07 01:16:31;;;;;;;;;11.50;8.00;;;;;4.35;81.98;101558.69;5055053;28;45887;-73
2022/01/07 01:18:56;;;;;;;;;7.75;5.00;;;;;4.44;82.23;101570.81;5057069;28;45417;-73
2022/01/07 01:21:21;;;;;;;;;6.50;6.00;;;;;4.47;82.23;101575.13;5052684;28;45492;-73
2022/01/07 01:23:47;;;;;;;;;8.00;7.00;;;;;4.43;81.80;101563.84;5055616;28;46294;-73
2022/01/07 01:26:13;;;;;;;;;10.75;5.75;;;;;4.44;81.40;101553.44;5056187;28;45431;-73
2022/01/07 01:28:39;;;;;;;;;10.25;7.00;;;;;4.51;81.19;101566.44;5056176;28;45475;-73
2022/01/07 01:31:04;;;;;;;;;9.75;6.50;;;;;4.54;81.05;101559.47;5057658;28;45292;-73
2022/01/07 01:33:30;;;;;;;;;6.00;5.25;;;;;4.57;80.56;101563.78;5055496;28;45423;-73
2022/01/07 01:35:55;;;;;;;;;9.67;3.33;;;;;4.58;80.61;101555.97;5055612;28;45836;-73
2022/01/07 01:38:20;;;;;;;;;9.25;7.75;;;;;4.60;80.91;101559.44;5052518;28;45356;-73
2022/01/07 01:40:46;;;;;;;;;7.00;7.00;;;;;4.58;80.84;101558.56;5055655;28;45356;-73
2022/01/07 01:43:12;;;;;;;;;13.50;7.50;;;;;4.56;80.69;101549.91;5057478;28;45924;-73
2022/01/07 01:45:37;;;;;;;;;12.75;7.50;;;;;4.51;80.99;101540.41;5055384;28;45333;-73
2022/01/07 01:48:03;;;;;;;;;11.75;8.25;;;;;4.59;80.41;101559.44;5055296;28;45549;-73
2022/01/07 01:50:28;;;;;;;;;8.25;7.00;;;;;4.60;80.83;101562.06;5055461;28;45484;-73
2022/01/07 01:52:56;;;;;;;;;7.75;5.75;;;;;4.65;81.21;101556.81;5055063;28;46132;-73
2022/01/07 01:55:24;;;;;;;;;7.50;7.00;;;;;4.66;80.81;101558.53;5055989;28;45561;-73
2022/01/07 01:57:50;;;;;;;;;8.75;7.00;;;;;4.63;80.69;101562.00;5055137;28;45457;-73
2022/01/07 02:00:16;;;;;;;;;10.50;7.00;;;;;4.70;80.76;101555.06;5055264;28;45538;-73
2022/01/07 02:02:42;;;;;;;;;12.25;11.00;;;;;4.68;80.58;101569.81;5055085;28;45503;-73
2022/01/07 02:05:08;;;;;;;;;9.25;5.50;;;;;4.69;80.55;101563.72;5055259;28;45481;-73
2022/01/07 02:07:35;;;;;;;;;10.25;8.25;;;;;4.62;80.19;101542.06;5055868;28;45375;-73
2022/01/07 02:10:06;;;;;;;;;14.50;8.75;;;;;4.70;80.34;101563.72;5056752;28;45278;-73
2022/01/07 02:12:31;;;;;;;;;10.00;8.25;;;;;4.65;80.52;101546.41;5052063;28;47436;-73
2022/01/07 02:14:57;;;;;;;;;13.50;7.00;;;;;4.67;80.50;101552.47;5054818;28;45459;-73
2022/01/07 02:17:24;;;;;;;;;8.00;8.00;;;;;4.66;81.27;101555.94;5055602;28;45331;-73
2022/01/07 02:19:50;;;;;;;;;15.25;7.75;;;;;4.67;80.64;101550.72;5054209;28;45625;-73
2022/01/07 02:22:19;;;;;;;;;8.00;7.50;;;;;4.68;80.98;101551.56;5056739;28;46658;-73
2022/01/07 02:24:46;;;;;;;;;7.00;6.50;;;;;4.69;81.05;101537.69;5054743;28;46105;-73
2022/01/07 02:27:12;;;;;;;;;7.75;7.75;;;;;4.65;80.93;101523.84;5055459;28;45440;-73
2022/01/07 02:29:38;;;;;;;;;7.75;7.75;;;;;4.74;81.19;101545.47;5046910;28;45512;-73
2022/01/07 02:32:04;;;;;;;;;9.00;7.50;;;;;4.70;81.21;101527.28;5054680;28;46207;-73
2022/01/07 02:34:30;;;;;;;;;10.25;8.50;;;;;4.75;81.24;101532.47;5055833;28;45436;-73
2022/01/07 02:36:55;;;;;;;;;5.00;3.75;;;;;4.75;81.68;101524.66;5055550;28;45477;-73
2022/01/07 02:39:20;;;;;;;;;8.50;5.00;;;;;4.84;81.36;101531.50;5055028;28;45546;-73
2022/01/07 02:41:46;;;;;;;;;5.75;5.75;;;;;4.84;81.37;101515.91;5053457;28;51615;-72
2022/01/07 02:44:11;;;;;;;;;7.50;6.00;;;;;4.85;81.35;101521.09;5054528;28;45311;-73
2022/01/07 02:46:37;;;;;;;;;7.75;4.50;;;;;4.80;81.48;101512.44;5046534;28;45367;-73
2022/01/07 02:49:14;;;;;;;;;5.50;5.50;;;;;4.85;82.25;101517.63;5055296;28;45265;-72
2022/01/07 02:51:39;;;;;;;;;8.25;7.50;;;;;4.86;81.89;101512.41;5054263;28;45406;-72
2022/01/07 02:54:06;;;;;;;;;10.00;9.25;;;;;4.88;81.82;101508.06;5054498;28;45415;-73
2022/01/07 02:56:32;;;;;;;;;5.75;5.25;;;;;4.87;81.72;101501.13;5054682;28;45560;-73
2022/01/07 02:58:58;;;;;;;;;3.50;2.00;;;;;4.91;81.91;101504.56;5054635;28;45518;-73
2022/01/07 03:01:23;;;;;;;;;8.75;6.00;;;;;4.93;81.70;101497.59;5056229;28;46922;-73
2022/01/07 03:03:48;;;;;;;;;5.00;5.00;;;;;4.66;81.65;101452.66;5045310;28;45350;-72
2022/01/07 03:06:14;;;;;;;;;10.50;7.25;;;;;4.96;81.39;101498.44;5048822;28;45305;-72
2022/01/07 03:08:40;;;;;;;;;9.00;8.00;;;;;4.90;81.88;101482.84;5054053;28;45253;-72
2022/01/07 03:11:05;;;;;;;;;8.00;7.00;;;;;5.01;81.89;101503.59;5054621;28;46031;-72
2022/01/07 03:13:31;;;;;;;;;11.25;8.00;;;;;5.04;81.61;101507.94;5055804;28;45463;-73
2022/01/07 03:15:56;;;;;;;;;8.00;5.67;;;;;5.00;81.58;101493.19;5053847;28;48299;-72
2022/01/07 03:18:21;;;;;;;;;7.33;7.00;;;;;4.94;81.53;101487.16;5053177;28;47010;-73
2022/01/07 03:20:47;;;;;;;;;11.00;6.25;;;;;5.04;81.50;101492.31;5053322;28;52688;-72
2022/01/07 03:23:13;;;;;;;;;6.50;3.50;;;;;5.05;81.58;101496.63;5041287;28;45450;-72
2022/01/07 03:25:40;;;;;;;;;6.50;4.50;;;;;5.07;81.97;101497.50;5054626;28;45392;-72
2022/01/07 03:28:08;;;;;;;;;8.00;5.50;;;;;5.09;81.91;101500.94;5055588;28;45387;-72
2022/01/07 03:30:33;;;;;;;;;8.00;5.50;;;;;5.11;81.82;101488.75;5053461;28;45994;-73
2022/01/07 03:32:58;;;;;;;;;7.25;5.25;;;;;5.11;81.37;101489.63;5053323;28;45332;-72
2022/01/07 03:35:24;;;;;;;;;8.25;7.00;;;;;5.12;81.59;101487.91;5053863;28;47179;-72
2022/01/07 03:37:50;;;;;;;;;6.25;5.75;;;;;5.08;81.63;101479.25;5049791;28;45301;-72
2022/01/07 03:40:16;;;;;;;;;8.00;5.50;;;;;5.07;81.44;101474.91;5054355;28;45291;-72
2022/01/07 03:42:43;;;;;;;;;4.75;0.75;;;;;5.04;81.38;101468.88;5053949;28;45424;-73
2022/01/07 03:45:09;;;;;;;;;10.50;5.00;;;;;5.04;81.66;101476.69;5053020;28;45518;-72
2022/01/07 03:47:35;;;;;;;;;5.75;5.75;;;;;4.94;81.46;101463.72;5052990;28;45449;-72
2022/01/07 03:50:00;;;;;;;;;9.25;7.50;;;;;4.99;81.40;101461.09;5053260;28;45388;-73
2022/01/07 03:52:26;;;;;;;;;9.75;6.75;;;;;5.00;81.07;101467.16;5055882;28;45364;-72
2022/01/07 03:54:51;;;;;;;;;6.25;6.25;;;;;4.94;81.15;101458.50;5051091;28;45411;-72
2022/01/07 03:57:18;;;;;;;;;8.00;5.75;;;;;4.87;81.59;101462.06;5048572;28;45391;-72
2022/01/07 03:59:43;;;;;;;;;7.50;5.00;;;;;4.83;81.40;101462.94;5053552;28;48619;-72
2022/01/07 04:02:09;;;;;;;;;4.50;4.50;;;;;4.82;81.29;101466.44;5048920;28;45373;-73
2022/01/07 04:04:34;;;;;;;;;7.25;7.25;;;;;4.85;81.44;101466.38;5054651;28;45275;-73
2022/01/07 04:06:59;;;;;;;;;7.50;5.50;;;;;4.89;81.58;101465.50;5052186;28;48160;-73
2022/01/07 04:09:25;;;;;;;;;5.75;5.75;;;;;4.92;81.44;101449.00;5056245;28;45885;-72
2022/01/07 04:11:51;;;;;;;;;5.00;2.50;;;;;4.95;81.44;101452.41;5053459;28;45388;-72
2022/01/07 04:14:17;;;;;;;;;10.00;7.50;;;;;5.00;81.57;101459.34;5051630;28;45456;-72
2022/01/07 04:16:42;;;;;;;;;5.00;5.00;;;;;5.03;80.93;101462.78;5052366;28;45257;-72
2022/01/07 04:19:07;;;;;;;;;7.00;7.00;;;;;5.08;81.32;101462.75;5047496;28;47000;-72
2022/01/07 04:21:33;;;;;;;;;5.00;4.00;;;;;5.10;81.00;101455.78;5036942;28;53712;-72
2022/01/07 04:23:58;;;;;;;;;8.75;7.25;;;;;5.10;80.81;101454.03;5050162;28;45601;-72
2022/01/07 04:26:23;;;;;;;;;8.00;4.00;;;;;5.08;80.86;101440.16;5053432;28;45378;-73
2022/01/07 04:28:49;;;;;;;;;6.50;4.00;;;;;5.12;80.85;101434.06;5052699;28;46037;-72
2022/01/07 04:31:14;;;;;;;;;7.50;3.50;;;;;5.18;80.73;101443.56;5054823;28;45500;-72
2022/01/07 04:33:39;;;;;;;;;6.00;5.00;;;;;5.16;80.69;101432.28;5053020;28;45525;-72
2022/01/07 04:36:04;;;;;;;;;5.00;4.00;;;;;5.18;80.23;101441.81;5052931;28;45549;-73
2022/01/07 04:38:31;;;;;;;;;4.00;4.00;;;;;5.18;80.40;101433.13;5053135;28;53343;-73
2022/01/07 04:40:57;;;;;;;;;9.25;4.00;;;;;5.17;80.68;101440.09;5038627;28;45562;-72
2022/01/07 04:43:22;;;;;;;;;5.25;3.50;;;;;5.20;80.50;101444.41;5050530;28;45438;-72
2022/01/07 04:45:48;;;;;;;;;4.50;4.00;;;;;5.10;80.08;101427.97;5051977;28;45586;-72
2022/01/07 04:48:13;;;;;;;;;5.00;5.00;;;;;5.19;80.26;101433.13;5052097;28;46228;-73
2022/01/07 04:50:39;;;;;;;;;4.50;4.50;;;;;5.20;80.24;101433.97;5052504;28;45570;-73
2022/01/07 04:53:05;;;;;;;;;3.50;2.00;;;;;5.19;80.39;101432.25;5051148;28;45320;-73
2022/01/07 04:55:36;;;;;;;;;5.50;5.50;;;;;5.18;79.83;101439.22;5052677;28;45266;-72
2022/01/07 04:58:03;;;;;;;;;12.00;5.75;;;;;5.18;80.12;101446.16;5053547;28;45457;-72
2022/01/07 05:00:28;;;;;;;;;5.00;4.00;;;;;5.09;79.91;101428.88;5052268;28;45824;-72
2022/01/07 05:02:53;;;;;;;;;5.75;4.00;;;;;5.17;80.11;101449.66;5052963;28;45632;-73
2022/01/07 05:05:19;;;;;;;;;4.50;2.00;;;;;5.17;80.16;101436.63;5052671;28;45655;-72
2022/01/07 05:07:45;;;;;;;;;8.00;4.00;;;;;5.21;79.79;101449.59;5052338;28;45374;-72
2022/01/07 05:10:12;;;;;;;;;4.25;4.25;;;;;5.12;80.36;101426.25;5054448;28;45324;-73
2022/01/07 05:12:39;;;;;;;;;7.25;4.75;;;;;5.22;80.20;101433.09;5052336;28;45412;-73
2022/01/07 05:15:06;;;;;;;;;4.50;1.75;;;;;4.93;79.92;101383.00;5049779;28;45399;-72
2022/01/07 05:17:32;;;;;;;;;5.50;4.25;;;;;5.24;79.77;101428.72;5052126;28;45419;-72
2022/01/07 05:19:57;;;;;;;;;3.00;2.00;;;;;5.21;80.22;101427.88;5052654;28;45873;-72
2022/01/07 05:22:23;;;;;;;;;4.75;4.00;;;;;5.21;80.28;101433.94;5054719;28;45334;-72
2022/01/07 05:24:48;;;;;;;;;4.25;3.50;;;;;5.23;80.23;101428.75;5052112;28;45251;-72
2022/01/07 05:27:14;;;;;;;;;5.50;4.25;;;;;5.29;80.05;101433.03;5051941;28;45962;-73
2022/01/07 05:29:39;;;;;;;;;7.00;7.00;;;;;5.30;80.33;101430.41;5051912;28;45569;-72
2022/01/07 05:32:05;;;;;;;;;6.25;4.75;;;;;5.28;80.07;101431.31;5051961;28;45744;-72
2022/01/07 05:34:31;;;;;;;;;4.50;2.00;;;;;5.19;79.97;101421.84;5053737;28;45683;-73
2022/01/07 05:36:56;;;;;;;;;4.75;4.00;;;;;5.18;80.11;101431.38;5051842;28;45550;-72
2022/01/07 05:39:22;;;;;;;;;8.00;4.25;;;;;5.13;80.38;101429.72;5052142;28;45276;-72
2022/01/07 05:41:48;;;;;;;;;7.00;4.50;;;;;5.02;80.25;101424.59;5059800;28;45704;-72
2022/01/07 05:44:13;;;;;;;;;4.25;2.00;;;;;5.01;80.64;101437.63;5051745;28;45460;-72
2022/01/07 05:46:38;;;;;;;;;6.50;4.00;;;;;4.91;80.70;101422.09;5051213;28;47171;-73
2022/01/07 05:49:04;;;;;;;;;4.00;2.50;;;;;4.97;80.68;101429.00;5067737;28;48729;-72
2022/01/07 05:51:29;;;;;;;;;3.50;3.50;;;;;4.89;80.72;101418.63;5052062;28;45510;-72
2022/01/07 05:53:54;;;;;;;;;1.00;0.00;;;;;4.93;80.81;101432.50;5051583;28;48452;-72
2022/01/07 05:56:20;;;;;;;;;4.75;4.75;;;;;4.93;80.83;101435.94;5051176;28;45430;-72
2022/01/07 05:58:45;;;;;;;;;5.75;3.50;;;;;4.96;81.03;101435.06;5052682;28;45538;-73
2022/01/07 06:01:12;;;;;;;;;6.50;4.00;;;;;4.99;81.13;101440.25;5053727;28;45471;-72
2022/01/07 06:03:40;;;;;;;;;6.00;4.50;;;;;5.03;80.86;101444.56;5049850;28;45423;-72
2022/01/07 06:06:07;;;;;;;;;4.00;2.50;;;;;5.03;80.78;101428.94;5054227;28;45929;-73
2022/01/07 06:08:32;;;;;;;;;2.25;2.25;;;;;5.13;80.74;101434.91;5055877;28;45522;-73
2022/01/07 06:10:57;;;;;;;;;5.50;5.00;;;;;5.08;80.75;101427.16;5068453;28;46302;-73
2022/01/07 06:13:23;;;;;;;;;5.00;3.33;;;;;5.10;80.80;101427.13;5063659;28;46539;-73
2022/01/07 06:15:48;;;;;;;;;4.00;2.50;;;;;5.15;81.00;101425.34;5063734;28;46153;-72
2022/01/07 06:18:14;;;;;;;;;4.25;3.50;;;;;5.18;80.75;101427.94;5055466;28;45386;-73
2022/01/07 06:20:39;;;;;;;;;6.75;3.75;;;;;5.12;80.79;101422.78;5058205;28;45568;-72
2022/01/07 06:23:04;;;;;;;;;4.75;3.00;;;;;5.23;81.05;101447.00;5060485;28;45454;-72
2022/01/07 06:25:29;;;;;;;;;2.00;2.00;;;;;5.19;80.96;101427.03;5055902;28;60095;-73
2022/01/07 06:27:55;;;;;;;;;2.00;1.75;;;;;5.26;81.26;101443.47;5056145;28;45292;-73
2022/01/07 06:30:20;;;;;;;;;5.50;4.25;;;;;5.22;81.47;101434.84;5063636;28;45573;-73
2022/01/07 06:32:46;;;;;;;;;2.50;2.50;;;;;5.38;80.89;101443.38;5054572;28;45534;-73
2022/01/07 06:35:12;;;;;;;;;2.00;1.75;;;;;5.43;81.27;101458.09;5054583;28;46776;-73
2022/01/07 06:37:38;;;;;;;;;5.00;5.00;;;;;5.47;81.06;101446.72;5055265;28;45368;-73
2022/01/07 06:40:05;;;;;;;;;5.25;4.00;;;;;5.50;81.12;101441.47;5056005;28;45430;-73
2022/01/07 06:42:31;;;;;;;;;4.00;2.50;;;;;5.64;81.01;101446.56;5054432;28;45588;-73
2022/01/07 06:44:56;;;;;;;;;5.00;2.00;;;;;5.71;80.66;101445.59;5053989;28;46281;-73
2022/01/07 06:47:22;;;;;;;;;5.50;5.25;;;;;5.75;80.88;101438.59;5054444;28;45356;-73
2022/01/07 06:49:47;;;;;;;;;8.50;5.00;;;;;5.73;80.82;101427.31;5054256;28;47839;-73
2022/01/07 06:52:12;;;;;;;;;4.00;2.50;;;;;5.80;80.83;101436.81;5056800;28;45488;-73
2022/01/07 06:54:38;;;;;;;;;3.50;3.50;;;;;5.81;80.42;101422.88;5054357;28;45733;-73
2022/01/07 06:57:03;;;;;;;;;5.75;4.75;;;;;5.83;80.64;101441.13;5053907;28;45427;-73
2022/01/07 06:59:29;;;;;;;;;5.00;1.75;;;;;5.82;80.81;101442.00;5054514;28;45436;-73
2022/01/07 07:01:54;;;;;;;;;6.75;6.75;;;;;5.84;81.08;101428.03;5054760;28;45631;-73
2022/01/07 07:04:19;;;;;;;;;13.67;7.33;;;;;5.86;80.78;101426.28;5056105;28;50246;-73
2022/01/07 07:06:45;;;;;;;;;3.50;2.50;;;;;5.88;80.57;101414.09;5053150;28;51673;-73
2022/01/07 07:09:11;;;;;;;;;5.00;5.00;;;;;5.90;80.76;101422.78;5054327;28;45483;-73
2022/01/07 07:11:36;;;;;;;;;6.00;5.00;;;;;5.88;80.82;101429.75;5054444;28;45436;-73
2022/01/07 07:14:01;;;;;;;;;5.00;5.00;;;;;5.92;80.77;101428.00;5065751;28;47133;-73
2022/01/07 07:16:27;;;;;;;;;7.50;6.25;;;;;5.93;80.68;101434.94;5054331;28;45387;-73
2022/01/07 07:18:52;;;;;;;;;10.50;6.25;;;;;5.90;81.01;101438.44;5044281;28;45458;-73
2022/01/07 07:21:18;;;;;;;;;6.50;5.00;;;;;5.96;80.81;101443.59;5054384;28;45802;-72
2022/01/07 07:23:43;;;;;;;;;4.75;3.00;;;;;5.99;81.09;101447.91;5053661;28;46531;-73
2022/01/07 07:26:08;;;;;;;;;8.25;5.25;;;;;6.03;81.09;101448.72;5053626;28;45431;-73
2022/01/07 07:28:36;;;;;;;;;5.00;4.50;;;;;6.06;80.78;101444.34;5055294;28;45228;-73
2022/01/07 07:31:05;;;;;;;;;5.25;5.00;;;;;6.09;80.68;101459.09;5054481;28;45486;-74
2022/01/07 07:33:53;;;;;;;;;6.50;4.75;;;;;6.11;80.85;101450.38;5053572;28;46031;-74
2022/01/07 07:36:30;;;;;;;;;5.75;2.50;;;;;6.15;80.87;101448.56;5053533;28;45868;-74
2022/01/07 07:39:03;;;;;;;;;7.50;6.00;;;;;6.16;80.70;101445.06;5051685;28;45527;-74
2022/01/07 07:41:29;;;;;;;;;6.50;5.00;;;;;6.15;80.63;101440.72;5048399;28;45360;-74
2022/01/07 07:43:57;;;;;;;;;6.50;6.00;;;;;6.20;80.75;101446.75;5053656;28;45408;-74
2022/01/07 07:46:22;;;;;;;;;8.00;5.50;;;;;6.23;80.99;101455.41;5055707;28;45375;-74
2022/01/07 07:48:48;;;;;;;;;5.50;4.75;;;;;6.26;80.72;101446.66;5053195;28;45570;-74
2022/01/07 07:51:15;;;;;;;;;7.25;5.25;;;;;6.31;80.83;101454.44;5053374;28;45646;-74
2022/01/07 07:53:41;;;;;;;;;5.75;4.00;;;;;6.34;81.10;101454.41;5052759;28;46269;-74
2022/01/07 07:56:07;;;;;;;;;9.00;6.50;;;;;6.38;81.16;101462.19;5053407;28;45478;-74
2022/01/07 07:58:33;;;;;;;;;5.00;5.00;;;;;6.39;81.02;101461.28;5054835;28;45323;-73
2022/01/07 08:00:59;;;;;;;;;5.25;5.00;;;;;6.40;80.91;101457.78;5053785;28;45702;-73
2022/01/07 08:03:25;;;;;;;;;9.50;5.75;;;;;6.49;81.18;101464.63;5053025;28;45371;-74
2022/01/07 08:05:51;;;;;;;;;11.50;7.00;;;;;6.51;81.26;101466.31;5051515;28;45790;-73
2022/01/07 08:08:16;;;;;;;;;12.00;5.00;;;;;6.61;80.99;101471.41;5053078;28;45529;-73
2022/01/07 08:10:48;;;;;;;;;5.00;4.50;;;;;6.63;81.13;101474.84;5053148;28;45565;-74
2022/01/07 08:15:58;;;;;;;;;6.25;4.50;;;;;6.71;81.54;101486.94;5052956;28;45609;-73
2022/01/07 08:18:34;;;;;;;;;13.25;6.50;;;;;6.74;82.14;101476.44;5060982;28;45538;-73
2022/01/07 08:21:02;;;;;;;;;9.00;4.75;;;;;6.77;82.40;101476.38;5056371;28;45261;-73
2022/01/07 08:23:28;;;;;;;;;8.25;6.00;;;;;6.79;82.52;101484.22;5052333;28;45438;-74
2022/01/07 08:25:53;;;;;;;;;5.00;3.00;;;;;6.75;83.48;101485.13;5051637;28;45517;-73
2022/01/07 08:28:22;;;;;;;;;5.00;5.00;;;;;6.72;84.08;101472.13;5054025;28;45669;-74
2022/01/07 08:36:19;;;;;;;;;4.75;4.75;;;;;6.56;84.38;101471.47;5058207;28;45284;-73
2022/01/07 08:38:45;;;;;;;;;8.25;4.00;;;;;6.56;84.83;101478.47;5052215;28;45341;-73
2022/01/07 08:41:12;;;;;;;;;5.75;2.50;;;;;6.58;84.70;101476.66;5052665;28;45423;-73
2022/01/07 08:43:37;;;;;;;;;5.75;5.00;;;;;6.56;85.02;101465.41;5053733;28;45485;-73
2022/01/07 08:46:05;;;;;;;;;8.25;4.25;;;;;6.63;84.14;101465.31;5054079;28;45600;-73
2022/01/07 08:48:31;;;;;;;;;4.00;4.00;;;;;6.67;83.67;101471.31;5052709;28;45557;-73
2022/01/07 08:50:57;;;;;;;;;5.00;5.00;;;;;6.69;83.47;101464.34;5052974;28;45378;-73
2022/01/07 08:53:22;;;;;;;;;6.50;4.00;;;;;6.58;83.97;101442.72;5052004;28;51168;-73
2022/01/07 08:55:48;;;;;;;;;7.50;7.50;;;;;6.69;83.90;101465.22;5053169;28;45402;-73
2022/01/07 08:58:13;;;;;;;;;5.25;4.00;;;;;6.69;83.96;101470.44;5051839;28;45454;-73
2022/01/07 09:00:39;;;;;;;;;9.00;5.00;;;;;6.69;83.52;101465.22;5041622;28;45237;-73
2022/01/07 09:03:04;;;;;;;;;8.00;5.50;;;;;6.62;83.51;101450.50;5050026;28;54162;-73
2022/01/07 09:05:30;;;;;;;;;4.75;2.00;;;;;6.60;83.50;101435.75;5049693;28;45396;-73
2022/01/07 09:07:55;;;;;;;;;3.00;3.00;;;;;6.66;83.57;101428.66;5044710;28;45722;-74
2022/01/07 09:10:20;;;;;;;;;1.00;0.00;;;;;6.65;84.25;101406.06;5050343;28;45641;-74
2022/01/07 09:12:46;;;;;;;;;2.75;2.75;;;;;6.61;85.49;101425.28;5047404;28;48112;-73
2022/01/07 09:15:12;;;;;;;;;5.50;4.00;;;;;6.55;85.41;101417.53;5053482;28;45471;-74
2022/01/07 09:17:39;;;;;;;;;7.00;5.50;;;;;6.68;85.37;101419.09;5049987;28;45423;-74
2022/01/07 09:20:06;;;;;;;;;9.50;7.50;;;;;6.74;84.95;101411.13;5035807;28;45698;-74
2022/01/07 09:22:32;;;;;;;;;3.25;3.25;;;;;6.76;84.53;101411.09;5036330;28;46365;-74
2022/01/07 09:24:57;;;;;;;;;2.25;2.25;;;;;6.87;84.19;101422.25;5039548;28;45391;-74
2022/01/07 09:27:22;;;;;;;;;9.25;5.00;;;;;6.99;84.32;101432.47;5039238;28;45486;-74
2022/01/07 09:29:48;;;;;;;;;47.33;38.33;;;;;7.04;84.03;101427.16;5040848;28;45349;-74
2022/01/07 09:32:13;;;;;;;;;2.00;2.00;;;;;7.22;83.51;101444.31;5051160;28;45296;-74
2022/01/07 09:34:38;;;;;;;;;4.50;2.00;;;;;7.23;83.21;101438.19;5037515;28;45341;-74
2022/01/07 09:37:05;;;;;;;;;5.00;3.50;;;;;7.19;83.06;101444.34;5035566;28;45292;-74
2022/01/07 09:39:32;;;;;;;;;2.00;2.00;;;;;7.22;83.37;101449.53;5052830;28;45345;-73
2022/01/07 09:42:01;;;;;;;;;1.75;1.75;;;;;7.26;83.39;101462.53;5055741;28;45418;-74
2022/01/07 09:44:27;;;;;;;;;5.00;1.75;;;;;7.31;82.99;101463.31;5056652;28;45900;-73
2022/01/07 09:46:53;;;;;;;;;4.50;2.00;;;;;7.33;82.66;101466.75;5038018;28;45541;-73
2022/01/07 09:49:18;;;;;;;;;2.00;2.00;;;;;7.29;82.64;101458.97;5057265;28;45377;-73
2022/01/07 09:51:44;;;;;;;;;5.00;2.00;;;;;7.26;82.20;101449.44;5055341;28;45504;-74
2022/01/07 09:54:10;;;;;;;;;2.00;2.00;;;;;7.26;82.13;101457.28;5062064;28;45604;-73
2022/01/07 09:56:36;;;;;;;;;2.25;2.00;;;;;7.31;82.20;101458.06;5055274;28;45546;-73
2022/01/07 09:59:05;;;;;;;;;1.75;1.75;;;;;7.33;82.37;101455.44;5055438;28;45372;-74
2022/01/07 10:01:31;;;;;;;;;7.50;3.25;;;;;7.36;82.34;101439.69;5055749;28;45955;-73
2022/01/07 10:03:56;;;;;;;;;2.50;1.00;;;;;7.33;81.72;101445.81;5059562;28;45300;-73
2022/01/07 10:06:24;;;;;;;;;3.25;2.00;;;;;7.27;81.74;101437.25;5056894;28;45475;-74
2022/01/07 10:09:10;;;;;;;;;3.75;1.50;;;;;7.47;82.88;101429.03;5060325;28;45503;-74
2022/01/07 10:11:37;;;;;;;;;9.25;6.00;;;;;8.01;82.52;101421.81;5055088;28;47033;-73
2022/01/07 10:14:22;;;;;;;;;9.25;6.50;;;;;8.74;81.82;101439.41;5053911;28;45633;-74
2022/01/07 10:16:59;;;;;;;;;5.75;5.25;;;;;9.32;81.28;101433.53;5042331;28;45484;-74
2022/01/07 10:19:35;;;;;;;;;6.75;6.25;;;;;9.56;79.33;101426.78;5052593;28;45395;-74
2022/01/07 10:22:05;;;;;;;;;7.00;6.00;;;;;9.71;78.74;101407.13;5054958;28;46237;-74
2022/01/07 10:24:31;;;;;;;;;6.50;5.25;;;;;9.99;78.92;101422.94;5054316;28;45952;-73
2022/01/07 10:27:13;;;;;;;;;7.75;5.00;;;;;9.92;77.30;101422.25;5049568;28;45436;-73
2022/01/07 10:29:41;;;;;;;;;7.00;5.50;;;;;9.98;77.59;101421.22;5044174;28;45481;-73
2022/01/07 10:32:31;;;;;;;;;6.00;6.00;;;;;10.15;76.32;101403.16;5038066;28;48289;-74
2022/01/07 10:35:05;;;;;;;;;8.25;6.25;;;;;10.12;76.23;101405.88;5036910;28;45908;-74
2022/01/07 10:37:31;;;;;;;;;7.25;6.50;;;;;10.12;76.63;101419.00;5054803;28;45411;-74
2022/01/07 10:39:56;;;;;;;;;4.00;3.00;;;;;10.10;76.19;101402.44;5035742;28;45675;-74
2022/01/07 10:42:22;;;;;;;;;5.00;5.00;;;;;10.16;75.97;101398.78;5053050;28;45746;-74
2022/01/07 10:45:03;;;;;;;;;7.25;5.75;;;;;10.34;76.68;101405.28;5050373;28;45325;-73
2022/01/07 10:47:29;;;;;;;;;6.75;6.00;;;;;10.48;75.88;101397.78;5051671;28;45445;-73
2022/01/07 10:50:17;;;;;;;;;7.00;6.00;;;;;10.59;75.50;101389.56;5036401;28;45432;-74
2022/01/07 10:52:43;;;;;;;;;6.75;5.75;;;;;10.71;75.40;101391.81;5055274;28;46312;-74
2022/01/07 10:55:21;;;;;;;;;7.25;7.00;;;;;11.00;75.38;101384.69;5040894;28;45357;-73
2022/01/07 10:57:49;;;;;;;;;6.50;6.00;;;;;11.13;74.45;101383.38;5041696;28;45246;-73
2022/01/07 11:00:17;;;;;;;;;6.75;6.75;;;;;11.15;74.64;101390.28;5041065;28;45462;-73
2022/01/07 11:02:43;;;;;;;;;4.00;4.00;;;;;11.20;75.01;101388.34;5039535;28;45372;-73
2022/01/07 11:05:09;;;;;;;;;4.50;4.50;;;;;11.14;73.67;101390.34;5038143;28;45479;-74
2022/01/07 11:07:35;;;;;;;;;5.50;3.00;;;;;10.86;73.53;101356.25;5038496;28;45352;-74
2022/01/07 11:10:06;;;;;;;;;6.25;3.00;;;;;11.12;73.33;101385.16;5063460;28;45266;-73
2022/01/07 11:12:32;;;;;;;;;3.00;3.00;;;;;11.03;72.78;101387.25;5044596;28;45362;-74
2022/01/07 11:14:58;;;;;;;;;3.00;2.00;;;;;11.01;72.91;101403.03;5041150;28;45407;-74
2022/01/07 11:17:26;;;;;;;;;6.00;4.25;;;;;10.91;73.29;101392.00;5039800;28;45534;-74
2022/01/07 11:19:54;;;;;;;;;2.50;2.00;;;;;10.86;73.52;101393.94;5039490;28;45591;-74
2022/01/07 11:22:22;;;;;;;;;4.75;3.25;;;;;10.83;73.76;101375.63;5040648;28;46103;-74
2022/01/07 11:25:04;;;;;;;;;1.50;1.50;;;;;10.91;73.28;101384.13;5041493;28;45851;-74
2022/01/07 11:27:30;;;;;;;;;3.25;1.75;;;;;10.97;73.50;101389.16;5040947;28;45495;-74
2022/01/07 11:30:07;;;;;;;;;8.25;5.75;;;;;10.84;72.93;101382.59;5049583;28;45467;-74
2022/01/07 11:32:44;;;;;;;;;11.00;11.00;;;;;10.70;73.47;101363.78;5056768;28;46168;-74
2022/01/07 11:35:21;;;;;;;;;6.00;3.00;;;;;10.85;72.73;101372.94;5037874;28;45498;-73
2022/01/07 11:37:55;;;;;;;;;2.00;2.00;;;;;10.92;72.98;101370.06;5047982;28;45555;-72